CheckWX is a tool to help pilots better visualize weather data.  It is not intended as a substitute for an official pre-flight weather briefing.

14:14:18 UTC

KOVL METAR
Olivia Regional Airport
Olivia, Minnesota, USA
Current

19 mins ago

KOVL 221355Z AUTO 06005KT 10SM OVC008 07/06 A3001 RMK AO2 LTG DSNT E AND SE
Observed
Apr-22 @ 13:55 UTC
Wind
  • 060° at 5 KTS
Visibility
10 SM
Flight Rules
IFR
Cloud Levels
  • Overcast at 800' AGL
Temperature
C / 45°F
Dewpoint
C / 43°F
Humidity
93%
Altimeter
30.01" Hg
Pressure
1016.22 hPa
Previous

39 mins ago

KOVL 221335Z AUTO 00000KT 10SM OVC010 07/06 A3000 RMK AO2
Observed
Apr-22 @ 13:35 UTC
Visibility
10 SM
Flight Rules
MVFR
Cloud Levels
  • Overcast at 1,000' AGL
Temperature
C / 45°F
Dewpoint
C / 43°F
Humidity
93%
Altimeter
30" Hg
Pressure
1015.92 hPa
Previous

59 mins ago

KOVL 221315Z AUTO 02015G19KT 10SM OVC010 07/06 A2994 RMK AO2 LTG DSNT E
Observed
Apr-22 @ 13:15 UTC
Wind
  • 020° at 15 KTS
  • Gusting to 19 KTS
Visibility
10 SM
Flight Rules
MVFR
Cloud Levels
  • Overcast at 1,000' AGL
Temperature
C / 45°F
Dewpoint
C / 43°F
Humidity
93%
Altimeter
29.94" Hg
Pressure
1013.92 hPa